createdAt,value
2023-01-28T00:01:41.725Z,102491.44
2023-01-28T00:04:16.725Z,102485.00
2023-01-28T00:06:50.744Z,102486.66
2023-01-28T00:09:24.309Z,102486.84
2023-01-28T00:11:59.067Z,102486.66
2023-01-28T00:14:32.625Z,102489.41
2023-01-28T00:17:06.479Z,102479.88
2023-01-28T00:19:41.430Z,102493.09
2023-01-28T00:22:15.393Z,102496.97
2023-01-28T00:24:48.898Z,102494.78
2023-01-28T00:27:22.701Z,102493.28
2023-01-28T00:29:56.205Z,102502.84
2023-01-28T00:32:30.247Z,102498.06
2023-01-28T00:35:05.558Z,102500.25
2023-01-28T00:37:39.533Z,102496.38
2023-01-28T00:40:14.016Z,102497.50
2023-01-28T00:42:47.867Z,102495.66
2023-01-28T00:45:21.849Z,102487.19
2023-01-28T00:47:55.861Z,102484.09
2023-01-28T00:50:30.789Z,102492.19
2023-01-28T00:53:04.558Z,102487.78
2023-01-28T00:55:39.104Z,102492.75
2023-01-28T00:58:12.969Z,102496.97
2023-01-28T01:00:46.763Z,102481.00
2023-01-28T01:03:21.400Z,102486.50
2023-01-28T01:05:58.611Z,102489.63
2023-01-28T01:08:36.045Z,102491.44
2023-01-28T01:11:11.288Z,102490.91
2023-01-28T01:13:45.122Z,102486.50
2023-01-28T01:16:18.714Z,102487.41
2023-01-28T01:18:53.061Z,102487.78
2023-01-28T01:21:30.645Z,102495.50
2023-01-28T01:24:04.881Z,102491.44
2023-01-28T01:26:38.488Z,102494.75
2023-01-28T01:29:12.390Z,102496.03
2023-01-28T01:31:46.086Z,102489.06
2023-01-28T01:34:20.122Z,102486.31
2023-01-28T01:36:55.186Z,102486.69
2023-01-28T01:39:29.121Z,102492.19
2023-01-28T01:42:02.945Z,102484.47
2023-01-28T01:44:57.976Z,102479.88
2023-01-28T01:47:37.640Z,102476.41
2023-01-28T01:50:20.649Z,102474.38
2023-01-28T01:53:04.032Z,102478.78
2023-01-28T01:55:42.255Z,102486.88
2023-01-28T01:58:18.965Z,102484.31
2023-01-28T02:00:52.982Z,102484.66
2023-01-28T02:03:32.201Z,102480.81
2023-01-28T02:06:06.406Z,102489.25
2023-01-28T02:08:41.702Z,102484.63
2023-01-28T02:11:18.128Z,102487.94
2023-01-28T02:13:57.237Z,102483.00
2023-01-28T02:16:33.352Z,102492.53
2023-01-28T02:19:08.487Z,102479.88
2023-01-28T02:22:06.888Z,102479.53
2023-01-28T02:25:22.349Z,102478.25
2023-01-28T02:28:19.195Z,102477.69
2023-01-28T02:30:59.197Z,102486.50
2023-01-28T02:33:39.355Z,102482.28
2023-01-28T02:36:23.782Z,102478.22
2023-01-28T02:39:02.664Z,102472.16
2023-01-28T02:41:41.017Z,102468.53
2023-01-28T02:44:16.294Z,102474.19
2023-01-28T02:47:07.843Z,102472.16
2023-01-28T02:49:45.638Z,102473.09
2023-01-28T02:52:48.652Z,102480.06
2023-01-28T02:55:31.157Z,102474.00
2023-01-28T02:58:12.383Z,102479.50
2023-01-28T03:00:55.514Z,102469.03
2023-01-28T03:03:35.903Z,102483.72
2023-01-28T03:06:13.762Z,102482.81
2023-01-28T03:09:10.245Z,102479.16
2023-01-28T03:12:06.593Z,102465.03
2023-01-28T03:14:59.156Z,102474.22
2023-01-28T03:17:58.017Z,102464.09
2023-01-28T03:20:56.985Z,102467.97
2023-01-28T03:23:51.691Z,102469.03
2023-01-28T03:26:46.547Z,102456.94
2023-01-28T03:29:41.954Z,102458.97
2023-01-28T03:32:33.003Z,102457.66
2023-01-28T03:35:27.929Z,102471.44
2023-01-28T03:38:18.018Z,102464.81
2023-01-28T03:40:53.115Z,102472.91
2023-01-28T03:43:26.786Z,102475.66
2023-01-28T03:46:00.645Z,102471.97
2023-01-28T03:48:34.354Z,102483.34
2023-01-28T03:51:09.788Z,102476.38
2023-01-28T03:53:43.297Z,102480.59
2023-01-28T03:56:19.504Z,102479.88
2023-01-28T03:58:55.237Z,102469.81
2023-01-28T04:01:29.018Z,102465.03
2023-01-28T04:04:03.015Z,102467.59
2023-01-28T04:06:38.174Z,102466.47
2023-01-28T04:09:12.049Z,102470.88
2023-01-28T04:11:46.051Z,102477.84
2023-01-28T04:14:20.105Z,102473.09
2023-01-28T04:16:54.893Z,102468.84
2023-01-28T04:19:29.250Z,102469.75
2023-01-28T04:22:05.294Z,102474.91
2023-01-28T04:24:38.899Z,102460.41
2023-01-28T04:27:12.587Z,102463.34
2023-01-28T04:29:46.097Z,102461.88
2023-01-28T04:32:20.118Z,102460.03
2023-01-28T04:34:53.779Z,102459.31
2023-01-28T04:37:29.037Z,102464.25
2023-01-28T04:40:02.729Z,102469.38
2023-01-28T04:42:36.699Z,102468.06
2023-01-28T04:45:10.978Z,102461.47
2023-01-28T04:47:44.686Z,102463.28
2023-01-28T04:50:18.463Z,102472.31
2023-01-28T04:52:53.656Z,102472.31
2023-01-28T04:55:27.631Z,102465.53
2023-01-28T04:58:01.426Z,102463.13
2023-01-28T05:00:35.069Z,102474.47
2023-01-28T05:03:08.863Z,102482.56
2023-01-28T05:05:42.312Z,102470.25
2023-01-28T05:08:18.155Z,102467.69
2023-01-28T05:10:51.733Z,102469.47
2023-01-28T05:13:25.505Z,102453.19
2023-01-28T05:15:59.353Z,102456.63
2023-01-28T05:18:33.163Z,102456.63
2023-01-28T05:21:07.173Z,102460.47
2023-01-28T05:23:42.453Z,102453.44
2023-01-28T05:26:16.030Z,102444.44
2023-01-28T05:28:51.335Z,102443.09
2023-01-28T05:31:24.910Z,102435.00
2023-01-28T05:33:58.631Z,102429.47
2023-01-28T05:36:32.109Z,102429.44
2023-01-28T05:39:07.647Z,102432.34
2023-01-28T05:41:41.309Z,102429.78
2023-01-28T05:44:15.144Z,102438.75
2023-01-28T05:46:48.743Z,102442.69
2023-01-28T05:49:22.481Z,102438.25
2023-01-28T05:51:56.406Z,102439.13
2023-01-28T05:54:31.655Z,102434.56
2023-01-28T05:57:05.356Z,102424.31
2023-01-28T05:59:39.598Z,102431.63
2023-01-28T06:02:13.219Z,102428.97
2023-01-28T06:04:47.119Z,102429.31
2023-01-28T06:07:20.696Z,102435.84
2023-01-28T06:09:55.782Z,102430.88
2023-01-28T06:12:29.372Z,102432.63
2023-01-28T06:15:03.382Z,102433.72
2023-01-28T06:17:37.348Z,102433.66
2023-01-28T06:20:12.179Z,102425.91
2023-01-28T06:22:46.071Z,102429.91
2023-01-28T06:25:21.311Z,102425.53
2023-01-28T06:27:54.856Z,102424.47
2023-01-28T06:30:28.724Z,102414.63
2023-01-28T06:33:02.537Z,102407.53
2023-01-28T06:35:36.836Z,102415.00
2023-01-28T06:38:10.623Z,102415.16
2023-01-28T06:40:45.735Z,102409.31
2023-01-28T06:43:19.253Z,102408.16
2023-01-28T06:45:53.096Z,102410.03
2023-01-28T06:48:27.543Z,102412.63
2023-01-28T06:51:01.473Z,102416.13
2023-01-28T06:53:35.123Z,102425.41
2023-01-28T06:56:10.425Z,102436.88
2023-01-28T06:58:43.957Z,102441.16
2023-01-28T07:01:18.001Z,102438.59
2023-01-28T07:03:51.529Z,102460.00
2023-01-28T07:06:25.440Z,102466.09
2023-01-28T07:09:00.016Z,102475.38
2023-01-28T07:11:35.585Z,102481.78
2023-01-28T07:14:09.135Z,102492.50
2023-01-28T07:16:42.955Z,102502.91
2023-01-28T07:19:16.513Z,102495.16
2023-01-28T07:21:50.348Z,102498.44
2023-01-28T07:24:24.067Z,102497.72
2023-01-28T07:26:59.188Z,102505.84
2023-01-28T07:29:32.755Z,102506.00
2023-01-28T07:32:07.350Z,102505.41
2023-01-28T07:34:43.143Z,102500.13
2023-01-28T07:37:16.883Z,102496.31
2023-01-28T07:39:50.595Z,102491.47
2023-01-28T07:42:25.824Z,102504.09
2023-01-28T07:44:59.455Z,102506.25
2023-01-28T07:47:33.912Z,102512.63
2023-01-28T07:50:08.598Z,102513.44
2023-01-28T07:52:45.814Z,102512.81
2023-01-28T07:55:19.921Z,102497.25
2023-01-28T07:57:56.809Z,102502.84
2023-01-28T08:00:33.463Z,102503.22
2023-01-28T08:03:11.317Z,102509.75
2023-01-28T08:05:48.075Z,102525.78
2023-01-28T08:08:22.313Z,102531.34
2023-01-28T08:10:56.259Z,102520.44
2023-01-28T08:13:31.368Z,102522.59
2023-01-28T08:16:05.671Z,102526.47
2023-01-28T08:18:39.586Z,102526.75
2023-01-28T08:21:13.377Z,102517.44
2023-01-28T08:23:47.090Z,102518.00
2023-01-28T08:26:20.860Z,102523.19
2023-01-28T08:28:56.231Z,102521.13
2023-01-28T08:31:30.323Z,102516.22
2023-01-28T08:34:04.189Z,102528.84
2023-01-28T08:36:37.824Z,102527.22
2023-01-28T08:39:11.711Z,102526.47
2023-01-28T08:41:45.348Z,102515.38
2023-01-28T08:44:20.641Z,102517.16
2023-01-28T08:46:54.360Z,102529.56
2023-01-28T08:49:28.380Z,102532.25
2023-01-28T08:52:02.077Z,102530.88
2023-01-28T08:54:36.567Z,102544.06
2023-01-28T08:57:10.243Z,102544.84
2023-01-28T08:59:46.362Z,102549.84
2023-01-28T09:02:31.105Z,102558.66
2023-01-28T09:05:07.169Z,102559.44
2023-01-28T09:07:41.380Z,102554.09
2023-01-28T09:10:16.620Z,102548.50
2023-01-28T09:12:50.521Z,102554.84
2023-01-28T09:15:26.041Z,102566.13
2023-01-28T09:17:59.659Z,102578.81
2023-01-28T09:20:34.068Z,102592.84
2023-01-28T09:23:08.606Z,102582.25
2023-01-28T09:25:42.475Z,102578.31
2023-01-28T09:28:16.124Z,102577.75
2023-01-28T09:30:51.395Z,102585.69
2023-01-28T09:33:25.069Z,102596.38
2023-01-28T09:36:01.134Z,102596.97
2023-01-28T09:38:36.314Z,102592.75
2023-01-28T09:41:24.400Z,102596.03
2023-01-28T09:44:07.945Z,102598.00
2023-01-28T09:46:45.654Z,102589.91
2023-01-28T09:49:25.430Z,102593.06
2023-01-28T09:51:59.169Z,102585.16
2023-01-28T09:54:37.967Z,102579.38
2023-01-28T09:57:19.766Z,102574.50
2023-01-28T09:59:53.442Z,102581.91
2023-01-28T10:02:43.776Z,102570.94
2023-01-28T10:05:28.010Z,102561.22
2023-01-28T10:08:15.076Z,102543.22
2023-01-28T10:10:55.775Z,102563.75
2023-01-28T10:13:41.871Z,102559.59
2023-01-28T10:16:27.424Z,102555.19
2023-01-28T10:19:08.499Z,102547.13
2023-01-28T10:21:48.201Z,102544.16
2023-01-28T10:24:31.729Z,102548.91
2023-01-28T10:27:13.691Z,102547.25
2023-01-28T10:29:50.050Z,102545.81
2023-01-28T10:32:31.149Z,102535.88
2023-01-28T10:35:06.968Z,102529.84
2023-01-28T10:37:41.545Z,102516.25
2023-01-28T10:40:17.637Z,102523.38
2023-01-28T10:42:51.363Z,102516.41
2023-01-28T10:45:30.103Z,102519.19
2023-01-28T10:48:08.962Z,102511.81
2023-01-28T10:50:53.348Z,102503.72
2023-01-28T10:53:36.702Z,102491.44
2023-01-28T10:56:13.053Z,102483.72
2023-01-28T10:58:58.303Z,102485.34
2023-01-28T11:01:45.075Z,102477.28
2023-01-28T11:04:23.710Z,102470.34
2023-01-28T11:07:03.547Z,102476.72
2023-01-28T11:09:38.850Z,102475.47
2023-01-28T11:12:14.192Z,102478.38
2023-01-28T11:14:52.942Z,102477.13
2023-01-28T11:17:29.606Z,102468.16
2023-01-28T11:20:12.861Z,102460.97
2023-01-28T11:22:50.025Z,102450.34
2023-01-28T11:25:30.311Z,102447.38
2023-01-28T11:28:08.785Z,102446.63
2023-01-28T11:30:42.806Z,102426.06
2023-01-28T11:33:20.335Z,102424.06
2023-01-28T11:35:55.252Z,102430.25
2023-01-28T11:38:30.572Z,102438.53
2023-01-28T11:41:04.559Z,102427.78
2023-01-28T11:43:38.361Z,102429.69
2023-01-28T11:46:26.642Z,102431.41
2023-01-28T11:49:11.882Z,102418.06
2023-01-28T11:51:54.948Z,102413.88
2023-01-28T11:54:44.369Z,102400.72
2023-01-28T11:57:24.772Z,102419.44
2023-01-28T12:00:22.064Z,102418.69
2023-01-28T12:03:07.235Z,102423.28
2023-01-28T12:05:49.403Z,102421.13
2023-01-28T12:08:25.818Z,102419.81
2023-01-28T12:11:44.892Z,102421.06
2023-01-28T12:14:30.495Z,102427.34
2023-01-28T12:17:18.768Z,102417.97
2023-01-28T12:20:05.618Z,102411.81
2023-01-28T12:23:04.874Z,102410.34
2023-01-28T12:25:49.127Z,102401.97
2023-01-28T12:28:34.766Z,102403.34
2023-01-28T12:31:31.102Z,102399.97
2023-01-28T12:34:34.550Z,102411.13
2023-01-28T12:37:16.328Z,102398.25
2023-01-28T12:40:04.324Z,102390.03
2023-01-28T12:42:42.147Z,102388.69
2023-01-28T12:45:24.347Z,102397.38
2023-01-28T12:48:03.518Z,102381.56
2023-01-28T12:50:42.367Z,102364.44
2023-01-28T12:53:24.453Z,102358.28
2023-01-28T12:56:04.398Z,102352.38
2023-01-28T12:58:42.427Z,102350.88
2023-01-28T13:01:22.924Z,102358.44
2023-01-28T13:04:04.137Z,102351.75
2023-01-28T13:06:43.964Z,102349.34
2023-01-28T13:09:20.728Z,102346.31
2023-01-28T13:11:59.286Z,102338.66
2023-01-28T13:14:35.019Z,102343.31
2023-01-28T13:17:25.537Z,102344.41
2023-01-28T13:20:00.078Z,102338.13
2023-01-28T13:22:36.127Z,102337.56
2023-01-28T13:25:24.403Z,102330.69
2023-01-28T13:28:00.525Z,102332.34
2023-01-28T13:30:36.404Z,102340.53
2023-01-28T13:33:31.176Z,102355.94
2023-01-28T13:36:17.895Z,102354.03
2023-01-28T13:39:02.984Z,102358.50
2023-01-28T13:41:41.662Z,102362.22
2023-01-28T13:44:20.697Z,102365.59
2023-01-28T13:46:54.890Z,102375.13
2023-01-28T13:49:35.445Z,102379.56
2023-01-28T13:52:16.399Z,102384.56
2023-01-28T13:54:56.110Z,102392.84
2023-01-28T13:58:08.748Z,102387.22
2023-01-28T14:01:00.532Z,102391.84
2023-01-28T14:04:02.234Z,102393.84
2023-01-28T14:07:16.269Z,102391.03
2023-01-28T14:10:06.017Z,102386.53
2023-01-28T14:12:56.430Z,102383.22
2023-01-28T14:15:46.794Z,102369.25
2023-01-28T14:18:27.783Z,102366.25
2023-01-28T14:21:04.150Z,102364.94
2023-01-28T14:23:45.951Z,102360.94
2023-01-28T14:26:28.929Z,102371.66
2023-01-28T14:29:25.678Z,102366.50
2023-01-28T14:32:05.316Z,102358.78
2023-01-28T14:34:39.180Z,102361.59
2023-01-28T14:37:15.811Z,102348.78
2023-01-28T14:39:54.237Z,102343.72
2023-01-28T14:42:31.135Z,102351.72
2023-01-28T14:45:24.121Z,102358.72
2023-01-28T14:48:25.311Z,102363.00
2023-01-28T14:51:19.199Z,102370.88
2023-01-28T14:54:23.497Z,102379.53
2023-01-28T14:57:19.286Z,102383.59
2023-01-28T14:59:55.382Z,102387.59
2023-01-28T15:02:31.666Z,102397.22
2023-01-28T15:05:10.207Z,102393.66
2023-01-28T15:07:45.792Z,102391.66
2023-01-28T15:10:22.728Z,102405.06
2023-01-28T15:13:05.676Z,102402.31
2023-01-28T15:15:44.480Z,102400.81
2023-01-28T15:18:23.247Z,102393.44
2023-01-28T15:20:57.872Z,102382.47
2023-01-28T15:23:35.181Z,102381.34
2023-01-28T15:26:13.485Z,102376.50
2023-01-28T15:28:49.989Z,102364.41
2023-01-28T15:31:25.934Z,102349.56
2023-01-28T15:34:01.521Z,102351.63
2023-01-28T15:36:35.379Z,102364.00
2023-01-28T15:39:15.621Z,102363.28
2023-01-28T15:41:52.888Z,102364.81
2023-01-28T15:44:34.581Z,102360.59
2023-01-28T15:47:17.237Z,102365.34
2023-01-28T15:49:54.790Z,102356.19
2023-01-28T15:52:34.312Z,102357.63
2023-01-28T15:55:29.572Z,102354.53
2023-01-28T15:58:29.774Z,102341.84
2023-01-28T16:01:15.837Z,102346.19
2023-01-28T16:04:02.268Z,102349.28
2023-01-28T16:06:38.512Z,102338.09
2023-01-28T16:09:22.116Z,102344.09
2023-01-28T16:12:02.968Z,102339.91
2023-01-28T16:14:44.322Z,102343.41
2023-01-28T16:17:22.745Z,102355.75
2023-01-28T16:20:01.125Z,102367.31
2023-01-28T16:22:37.299Z,102367.47
2023-01-28T16:25:27.993Z,102342.66
2023-01-28T16:28:03.365Z,102343.78
2023-01-28T16:30:38.957Z,102351.16
2023-01-28T16:33:20.873Z,102366.22
2023-01-28T16:36:07.722Z,102357.97
2023-01-28T16:38:42.247Z,102359.66
2023-01-28T16:41:22.585Z,102361.50
2023-01-28T16:43:56.664Z,102358.28
2023-01-28T16:46:30.401Z,102349.56
2023-01-28T16:49:05.595Z,102345.38
2023-01-28T16:51:42.573Z,102337.88
2023-01-28T16:54:17.623Z,102342.84
2023-01-28T16:56:51.861Z,102352.56
2023-01-28T16:59:25.849Z,102358.09
2023-01-28T17:01:59.452Z,102362.50
2023-01-28T17:04:38.592Z,102387.66
2023-01-28T17:07:12.279Z,102376.63
2023-01-28T17:09:46.203Z,102363.59
2023-01-28T17:12:19.934Z,102357.94
2023-01-28T17:14:53.790Z,102357.19
2023-01-28T17:17:27.529Z,102341.97
2023-01-28T17:20:02.853Z,102344.38
2023-01-28T17:22:36.514Z,102357.41
2023-01-28T17:25:11.055Z,102355.03
2023-01-28T17:27:45.876Z,102354.44
2023-01-28T17:30:21.269Z,102355.53
2023-01-28T17:32:55.343Z,102347.19
2023-01-28T17:35:30.970Z,102347.03
2023-01-28T17:38:05.769Z,102356.97
2023-01-28T17:40:39.626Z,102350.00
2023-01-28T17:43:13.538Z,102350.56
2023-01-28T17:45:47.316Z,102357.75
2023-01-28T17:48:21.107Z,102351.31
2023-01-28T17:50:58.356Z,102360.88
2023-01-28T17:53:34.872Z,102361.22
2023-01-28T17:56:16.839Z,102364.50
2023-01-28T17:58:52.021Z,102355.13
2023-01-28T18:01:27.361Z,102347.41
2023-01-28T18:04:01.970Z,102341.53
2023-01-28T18:06:37.467Z,102347.41
2023-01-28T18:09:15.365Z,102357.53
2023-01-28T18:11:49.305Z,102361.75
2023-01-28T18:14:23.311Z,102353.25
2023-01-28T18:16:57.743Z,102368.16
2023-01-28T18:19:31.553Z,102375.28
2023-01-28T18:22:07.049Z,102385.75
2023-01-28T18:24:40.616Z,102397.75
2023-01-28T18:27:14.531Z,102392.44
2023-01-28T18:29:48.463Z,102394.44
2023-01-28T18:32:22.227Z,102381.22
2023-01-28T18:34:55.846Z,102383.56
2023-01-28T18:37:31.030Z,102382.09
2023-01-28T18:40:05.942Z,102375.69
2023-01-28T18:42:39.687Z,102375.84
2023-01-28T18:45:13.549Z,102364.66
2023-01-28T18:47:47.862Z,102360.97
2023-01-28T18:50:21.566Z,102363.69
2023-01-28T18:52:56.975Z,102359.06
2023-01-28T18:55:30.568Z,102355.56
2023-01-28T18:58:08.007Z,102347.34
2023-01-28T19:00:41.843Z,102341.84
2023-01-28T19:03:15.519Z,102338.34
2023-01-28T19:05:49.191Z,102338.13
2023-01-28T19:08:24.427Z,102334.91
2023-01-28T19:10:58.609Z,102329.06
2023-01-28T19:13:32.594Z,102327.97
2023-01-28T19:16:06.898Z,102327.22
2023-01-28T19:18:41.014Z,102328.47
2023-01-28T19:21:15.318Z,102331.00
2023-01-28T19:23:56.367Z,102324.38
2023-01-28T19:26:32.469Z,102325.50
2023-01-28T19:29:07.785Z,102322.75
2023-01-28T19:31:41.335Z,102328.06
2023-01-28T19:34:16.551Z,102323.31
2023-01-28T19:36:50.008Z,102326.22
2023-01-28T19:39:25.148Z,102335.22
2023-01-28T19:42:02.141Z,102343.50
2023-01-28T19:44:35.948Z,102331.91
2023-01-28T19:47:09.565Z,102329.72
2023-01-28T19:49:43.418Z,102323.66
2023-01-28T19:52:17.239Z,102323.66
2023-01-28T19:54:52.334Z,102322.41
2023-01-28T19:57:25.880Z,102329.72
2023-01-28T19:59:59.694Z,102333.72
2023-01-28T20:02:33.384Z,102329.94
2023-01-28T20:05:07.793Z,102342.19
2023-01-28T20:07:41.433Z,102331.72
2023-01-28T20:10:16.966Z,102331.00
2023-01-28T20:12:50.557Z,102322.75
2023-01-28T20:15:24.481Z,102318.34
2023-01-28T20:17:58.319Z,102318.34
2023-01-28T20:20:32.167Z,102313.06
2023-01-28T20:23:06.510Z,102302.97
2023-01-28T20:25:42.392Z,102305.41
2023-01-28T20:28:16.165Z,102305.34
2023-01-28T20:30:50.473Z,102307.78
2023-01-28T20:33:24.693Z,102298.03
2023-01-28T20:36:01.987Z,102306.28
2023-01-28T20:38:36.500Z,102307.75
2023-01-28T20:41:13.538Z,102299.88
2023-01-28T20:43:47.511Z,102303.19
2023-01-28T20:46:23.264Z,102294.72
2023-01-28T20:48:58.692Z,102287.00
2023-01-28T20:51:35.738Z,102291.28
2023-01-28T20:54:09.505Z,102292.53
2023-01-28T20:56:44.773Z,102291.75
2023-01-28T20:59:19.317Z,102287.00
2023-01-28T21:01:53.446Z,102289.19
2023-01-28T21:04:27.155Z,102288.44
2023-01-28T21:07:01.054Z,102293.03
2023-01-28T21:09:34.628Z,102296.56
2023-01-28T21:12:10.058Z,102294.53
2023-01-28T21:14:43.693Z,102289.19
2023-01-28T21:17:18.212Z,102286.03
2023-01-28T21:19:51.871Z,102279.81
2023-01-28T21:22:25.681Z,102277.81
2023-01-28T21:24:59.180Z,102283.13
2023-01-28T21:27:35.671Z,102278.56
2023-01-28T21:30:10.473Z,102282.38
2023-01-28T21:32:44.808Z,102288.25
2023-01-28T21:35:18.706Z,102285.81
2023-01-28T21:37:52.598Z,102290.41
2023-01-28T21:40:26.408Z,102291.47
2023-01-28T21:43:01.672Z,102286.50
2023-01-28T21:45:35.438Z,102284.50
2023-01-28T21:48:09.186Z,102290.09
2023-01-28T21:50:56.688Z,102287.69
2023-01-28T21:53:30.466Z,102287.47
2023-01-28T21:56:08.262Z,102284.09
2023-01-28T21:59:00.878Z,102281.19
2023-01-28T22:01:34.896Z,102272.63
2023-01-28T22:04:08.649Z,102277.25
2023-01-28T22:06:43.157Z,102273.56
2023-01-28T22:09:17.020Z,102273.41
2023-01-28T22:11:50.508Z,102277.63
2023-01-28T22:14:25.783Z,102264.78
2023-01-28T22:16:59.457Z,102270.25
2023-01-28T22:19:33.490Z,102273.97
2023-01-28T22:22:07.686Z,102275.75
2023-01-28T22:24:41.812Z,102271.31
2023-01-28T22:27:15.404Z,102275.69
2023-01-28T22:29:50.438Z,102271.69
2023-01-28T22:32:24.103Z,102262.50
2023-01-28T22:35:00.126Z,102259.06
2023-01-28T22:37:33.902Z,102252.44
2023-01-28T22:40:08.529Z,102259.75
2023-01-28T22:42:42.330Z,102251.53
2023-01-28T22:45:17.800Z,102248.78
2023-01-28T22:47:51.344Z,102250.38
2023-01-28T22:50:25.546Z,102239.19
2023-01-28T22:52:59.116Z,102230.59
2023-01-28T22:55:33.682Z,102224.53
2023-01-28T22:58:07.354Z,102239.41
2023-01-28T23:00:42.755Z,102226.19
2023-01-28T23:03:16.376Z,102225.47
2023-01-28T23:05:50.253Z,102226.38
2023-01-28T23:08:23.834Z,102223.22
2023-01-28T23:10:59.995Z,102218.59
2023-01-28T23:13:48.195Z,102219.34
2023-01-28T23:16:39.961Z,102217.63
2023-01-28T23:19:31.119Z,102212.25
2023-01-28T23:22:22.936Z,102221.56
2023-01-28T23:24:56.432Z,102218.75
2023-01-28T23:27:30.423Z,102218.41
2023-01-28T23:30:07.523Z,102224.81
2023-01-28T23:32:46.554Z,102226.03
2023-01-28T23:35:20.663Z,102215.47
2023-01-28T23:37:55.669Z,102218.25
2023-01-28T23:40:29.538Z,102222.28
2023-01-28T23:43:04.492Z,102223.72
2023-01-28T23:45:38.055Z,102232.00
2023-01-28T23:48:13.132Z,102229.59
2023-01-28T23:50:46.691Z,102224.28
2023-01-28T23:53:20.376Z,102226.28
2023-01-28T23:55:54.014Z,102234.75
2023-01-28T23:58:42.542Z,102239.72
